Terminal Aerodrome Forecast
Issued by NWS

Home | Current Version | Previous Version | Text Only | Print | Product List | Glossary On
Versions: 1 2 3 4 5 6 7 8 9 10 11 12 13 14
000
FTAK31 PAJN 211137
TAFAWG
TAF
PAWG 211137Z 2112/2212 09008KT P6SM -RA SCT022 OVC035
     FM211500 12006KT 4SM RA BR SCT007 OVC022
     FM220000 12010G20KT 4SM RA BR SCT007 OVC020 WS020/16040KT
     FM220600 12010KT 4SM RA BR BKN007 OVC015 WS020/17035KT
      AMD LTD TO CLD VIS AND WIND 2112/2115=

USA.gov is the U.S. government's official web portal to all federal, state and local government web resources and services.